Time;durP1;ratioP1;P1;durP2;ratioP2;P2;SDS_P1;SDS_P2;PMS_P1;PMS_P2;Temp;Humidity;BMP_temperature;BMP_pressure;BME280_temperature;BME280_humidity;BME280_pressure;Samples;Min_cycle;Max_cycle;Signal;HPM_P1;HPM_P2
2023/06/11 00:00:20;;;;;;;18.57;11.37;;;20.30;96.30;;;;;;4987922;28;20196;-80
2023/06/11 00:02:53;;;;;;;21.43;11.40;;;20.30;96.30;;;;;;4991767;28;20243;-79
2023/06/11 00:05:22;;;;;;;25.00;11.27;;;20.30;96.30;;;;;;4992197;28;20267;-80
2023/06/11 00:07:50;;;;;;;24.53;11.57;;;20.30;96.20;;;;;;4992558;28;20204;-79
2023/06/11 00:10:19;;;;;;;19.97;11.43;;;20.30;96.20;;;;;;4976882;28;20214;-80
2023/06/11 00:12:58;;;;;;;14.43;11.93;;;20.20;96.20;;;;;;4979194;28;20200;-79
2023/06/11 00:15:28;;;;;;;18.37;12.00;;;20.20;96.30;;;;;;4971917;28;20259;-80
2023/06/11 00:17:56;;;;;;;17.03;11.50;;;20.20;96.40;;;;;;4994411;28;20212;-80
2023/06/11 00:20:28;;;;;;;28.00;13.10;;;20.20;96.40;;;;;;5004361;28;20213;-80
2023/06/11 00:22:56;;;;;;;19.33;12.20;;;20.20;96.40;;;;;;5011163;28;20613;-79
2023/06/11 00:25:24;;;;;;;22.60;12.13;;;20.20;96.50;;;;;;4985442;28;20303;-79
2023/06/11 00:27:52;;;;;;;24.93;12.40;;;20.20;96.50;;;;;;4992084;28;20222;-79
2023/06/11 00:30:19;;;;;;;27.23;13.50;;;20.20;96.70;;;;;;4994281;28;20283;-79
2023/06/11 00:32:47;;;;;;;27.20;13.97;;;20.20;96.60;;;;;;4991237;28;20274;-79
2023/06/11 00:35:16;;;;;;;26.17;14.57;;;20.20;96.60;;;;;;4982978;28;20264;-79
2023/06/11 00:37:47;;;;;;;31.77;14.13;;;20.10;96.50;;;;;;4995288;28;20667;-80
2023/06/11 00:40:19;;;;;;;26.50;16.00;;;20.10;96.60;;;;;;4994583;28;20212;-80
2023/06/11 00:42:49;;;;;;;23.17;14.43;;;20.10;96.60;;;;;;5007910;28;20213;-82
2023/06/11 00:45:18;;;;;;;30.63;16.43;;;20.10;96.50;;;;;;4984291;28;20195;-80
2023/06/11 00:47:45;;;;;;;26.67;15.33;;;20.10;96.50;;;;;;4994264;28;20239;-80
2023/06/11 00:50:15;;;;;;;29.70;15.73;;;20.10;96.40;;;;;;4974887;28;20251;-78
2023/06/11 00:52:46;;;;;;;26.77;16.10;;;20.10;96.30;;;;;;4991276;28;20244;-79
2023/06/11 00:55:17;;;;;;;21.93;16.23;;;20.00;96.30;;;;;;4974471;28;20240;-79
2023/06/11 00:57:48;;;;;;;19.30;14.33;;;20.00;96.40;;;;;;5001923;28;20220;-79
2023/06/11 01:00:22;;;;;;;19.93;15.37;;;20.00;96.40;;;;;;4991635;28;20208;-80
2023/06/11 01:02:59;;;;;;;27.63;14.30;;;20.00;96.50;;;;;;4977181;28;20263;-80
2023/06/11 01:05:31;;;;;;;27.27;15.77;;;19.90;96.60;;;;;;5011400;28;20277;-81
2023/06/11 01:08:07;;;;;;;29.80;14.73;;;19.90;96.60;;;;;;5007323;28;20528;-80
2023/06/11 01:10:39;;;;;;;25.43;15.70;;;19.80;96.20;;;;;;4995695;28;20243;-79
2023/06/11 01:13:09;;;;;;;26.10;16.10;;;19.80;96.20;;;;;;4991817;28;20204;-79
2023/06/11 01:15:42;;;;;;;37.23;17.67;;;19.70;96.40;;;;;;4979493;28;20208;-79
2023/06/11 01:18:28;;;;;;;35.37;18.67;;;19.70;96.60;;;;;;4990157;28;20243;-80
2023/06/11 01:21:09;;;;;;;35.70;17.83;;;19.70;96.80;;;;;;4992574;28;20537;-79
2023/06/11 01:23:42;;;;;;;42.93;18.07;;;19.70;96.90;;;;;;4976882;28;20234;-80
2023/06/11 01:26:36;;;;;;;27.80;16.83;;;19.60;96.90;;;;;;4969849;28;20216;-79
2023/06/11 01:29:08;;;;;;;29.80;16.87;;;19.70;97.00;;;;;;4992545;28;20208;-80
2023/06/11 01:31:44;;;;;;;32.27;16.73;;;19.60;97.00;;;;;;5010253;28;20215;-79
2023/06/11 01:34:15;;;;;;;27.23;15.53;;;19.60;97.00;;;;;;4983483;28;20215;-79
2023/06/11 01:36:48;;;;;;;28.90;17.43;;;19.60;97.00;;;;;;4991575;28;20232;-80
2023/06/11 01:39:19;;;;;;;37.60;18.60;;;19.60;97.00;;;;;;4990724;28;20222;-79
2023/06/11 01:42:07;;;;;;;36.33;18.33;;;19.60;97.00;;;;;;5001605;28;20554;-79
2023/06/11 01:44:35;;;;;;;31.27;18.80;;;19.50;97.00;;;;;;4978826;28;20231;-79
2023/06/11 01:47:04;;;;;;;38.87;19.73;;;19.50;97.00;;;;;;4985309;28;20265;-80
2023/06/11 01:49:35;;;;;;;35.37;18.80;;;19.50;96.80;;;;;;4977992;28;20205;-79
2023/06/11 01:52:06;;;;;;;32.60;18.47;;;19.60;97.10;;;;;;4993403;28;20208;-80
2023/06/11 01:54:38;;;;;;;22.30;17.93;;;19.50;97.10;;;;;;4991847;28;20211;-80
2023/06/11 01:57:08;;;;;;;28.43;18.60;;;19.50;97.20;;;;;;4992917;28;20258;-80
2023/06/11 01:59:37;;;;;;;22.23;17.27;;;19.50;97.20;;;;;;4991583;28;20215;-79
2023/06/11 02:02:07;;;;;;;23.50;16.27;;;19.50;97.30;;;;;;5005689;28;20192;-79
2023/06/11 02:04:36;;;;;;;31.80;16.97;;;19.60;97.40;;;;;;4994357;28;20206;-80
2023/06/11 02:07:06;;;;;;;39.60;17.43;;;19.60;97.50;;;;;;5013424;28;20263;-79
2023/06/11 02:09:37;;;;;;;35.27;17.70;;;19.60;97.60;;;;;;4997882;28;20208;-79
2023/06/11 02:12:08;;;;;;;35.33;17.10;;;19.60;97.20;;;;;;4996995;28;20569;-83
2023/06/11 02:14:36;;;;;;;24.37;17.63;;;19.60;97.10;;;;;;4997531;28;20263;-79
2023/06/11 02:17:03;;;;;;;32.30;19.07;;;19.60;97.10;;;;;;4998328;28;20300;-80
2023/06/11 02:19:39;;;;;;;30.87;18.27;;;19.60;97.20;;;;;;4991703;28;20212;-80
2023/06/11 02:22:07;;;;;;;28.47;17.63;;;19.60;97.20;;;;;;4989931;28;20204;-79
2023/06/11 02:24:35;;;;;;;33.13;15.87;;;19.60;97.30;;;;;;4976368;28;20208;-83
2023/06/11 02:27:08;;;;;;;20.23;16.60;;;19.60;97.30;;;;;;4976274;28;20824;-80
2023/06/11 02:29:37;;;;;;;29.30;16.97;;;19.60;97.30;;;;;;4997442;28;20547;-80
2023/06/11 02:32:08;;;;;;;26.70;18.67;;;19.60;97.30;;;;;;4989099;28;20213;-80
2023/06/11 02:34:42;;;;;;;30.30;18.57;;;19.50;97.30;;;;;;4997390;28;20219;-79
2023/06/11 02:37:09;;;;;;;29.97;18.90;;;19.50;97.30;;;;;;4994505;28;20256;-79
2023/06/11 02:39:48;;;;;;;25.80;16.50;;;19.50;97.30;;;;;;4989305;28;20219;-80
2023/06/11 02:42:19;;;;;;;28.13;18.33;;;19.50;97.30;;;;;;4997482;28;20208;-80
2023/06/11 02:44:47;;;;;;;27.00;18.70;;;19.50;97.20;;;;;;4981586;28;20204;-80
2023/06/11 02:47:20;;;;;;;28.93;18.77;;;19.50;97.20;;;;;;5008444;28;20311;-83
2023/06/11 02:49:52;;;;;;;31.60;17.37;;;19.50;97.10;;;;;;4995312;28;20214;-79
2023/06/11 02:52:27;;;;;;;24.90;18.27;;;19.50;97.10;;;;;;4996450;28;20527;-80
2023/06/11 02:55:02;;;;;;;26.13;18.17;;;19.50;97.10;;;;;;5012083;28;20204;-80
2023/06/11 02:57:35;;;;;;;33.70;19.70;;;19.50;97.10;;;;;;4997683;28;20215;-81
2023/06/11 03:00:06;;;;;;;28.93;20.00;;;19.40;97.20;;;;;;4999692;28;20207;-81
2023/06/11 03:02:37;;;;;;;29.80;19.77;;;19.40;97.20;;;;;;4999758;28;20211;-80
2023/06/11 03:05:06;;;;;;;30.80;18.70;;;19.40;97.20;;;;;;4999258;28;20206;-80
2023/06/11 03:07:34;;;;;;;27.57;15.73;;;19.40;97.20;;;;;;4982803;28;20605;-80
2023/06/11 03:10:13;;;;;;;18.87;14.57;;;19.40;97.20;;;;;;4991073;28;20298;-79
2023/06/11 03:12:44;;;;;;;23.70;18.90;;;19.40;97.20;;;;;;5013604;28;20219;-81
2023/06/11 03:15:16;;;;;;;24.23;16.43;;;19.30;97.20;;;;;;5008463;28;20222;-80
2023/06/11 03:17:51;;;;;;;26.33;15.13;;;19.30;97.30;;;;;;4981761;28;20227;-80
2023/06/11 03:20:21;;;;;;;23.23;14.10;;;19.30;97.30;;;;;;4982740;28;20214;-80
2023/06/11 03:22:57;;;;;;;22.53;14.77;;;19.30;97.20;;;;;;4986388;28;20222;-79
2023/06/11 03:25:27;;;;;;;28.90;17.03;;;19.30;97.20;;;;;;4976706;28;20298;-81
2023/06/11 03:27:55;;;;;;;27.10;17.97;;;19.20;97.20;;;;;;5009005;28;20214;-80
2023/06/11 03:30:26;;;;;;;25.03;18.53;;;19.20;97.20;;;;;;4981809;28;20207;-80
2023/06/11 03:32:59;;;;;;;25.53;16.90;;;19.30;97.20;;;;;;4999758;28;20231;-80
2023/06/11 03:35:40;;;;;;;26.93;16.53;;;19.30;97.20;;;;;;5010293;28;20198;-80
2023/06/11 03:38:19;;;;;;;27.13;16.73;;;19.20;97.20;;;;;;5017406;28;20218;-80
2023/06/11 03:40:52;;;;;;;22.50;17.83;;;19.20;97.20;;;;;;4998674;28;20200;-79
2023/06/11 03:43:26;;;;;;;12.93;10.90;;;19.20;97.20;;;;;;4988570;28;20211;-80
2023/06/11 03:46:05;;;;;;;25.37;12.30;;;19.20;97.20;;;;;;4993253;28;20255;-80
2023/06/11 03:48:33;;;;;;;29.30;13.90;;;19.20;97.00;;;;;;4985373;28;20206;-80
2023/06/11 03:51:01;;;;;;;32.43;16.13;;;19.20;97.00;;;;;;4972300;28;20207;-82
2023/06/11 03:53:29;;;;;;;24.37;16.33;;;19.20;97.00;;;;;;4986441;28;20337;-80
2023/06/11 03:55:57;;;;;;;23.80;14.57;;;19.20;97.00;;;;;;4982710;28;20242;-80
2023/06/11 03:58:25;;;;;;;25.20;16.47;;;19.20;97.00;;;;;;4984448;28;20228;-80
2023/06/11 04:00:58;;;;;;;29.97;17.20;;;19.20;96.90;;;;;;4997852;28;20303;-80
2023/06/11 04:03:35;;;;;;;27.27;17.53;;;19.20;97.00;;;;;;4999435;28;20213;-80
2023/06/11 04:06:03;;;;;;;26.63;17.67;;;19.20;97.00;;;;;;5009488;28;20299;-80
2023/06/11 04:08:34;;;;;;;24.73;19.10;;;19.30;97.00;;;;;;4997724;28;20623;-80
2023/06/11 04:11:15;;;;;;;26.20;20.73;;;19.30;97.00;;;;;;5007150;28;20214;-80
2023/06/11 04:13:49;;;;;;;24.60;17.73;;;19.30;97.00;;;;;;5013492;28;20639;-80
2023/06/11 04:16:19;;;;;;;28.00;18.27;;;19.30;97.00;;;;;;4999012;28;20214;-79
2023/06/11 04:18:52;;;;;;;22.40;18.10;;;19.30;97.10;;;;;;5009567;28;20231;-80
2023/06/11 04:21:21;;;;;;;18.37;16.33;;;19.40;97.20;;;;;;4999762;28;20227;-80
2023/06/11 04:23:55;;;;;;;23.73;17.13;;;19.40;97.20;;;;;;4998571;28;20646;-84
2023/06/11 04:26:25;;;;;;;24.23;18.60;;;19.50;97.30;;;;;;5008274;28;20231;-80
2023/06/11 04:28:56;;;;;;;20.40;16.40;;;19.50;97.30;;;;;;4995070;28;20590;-80
2023/06/11 04:31:27;;;;;;;24.77;19.87;;;19.60;97.30;;;;;;4995285;28;20286;-80
2023/06/11 04:34:43;;;;;;;24.83;18.37;;;19.60;97.30;;;;;;5008842;28;20243;-79
2023/06/11 04:37:16;;;;;;;22.07;18.43;;;19.70;97.30;;;;;;4992320;28;20219;-80
2023/06/11 04:39:51;;;;;;;24.23;18.37;;;19.70;97.30;;;;;;4985437;28;20758;-80
2023/06/11 04:42:20;;;;;;;25.33;17.77;;;19.80;97.30;;;;;;4984583;28;20294;-80
2023/06/11 04:44:53;;;;;;;25.37;16.90;;;19.90;97.30;;;;;;4999378;28;20651;-80
2023/06/11 04:47:22;;;;;;;28.73;15.23;;;20.00;97.20;;;;;;4999937;28;20643;-80
2023/06/11 04:49:56;;;;;;;24.40;15.70;;;20.00;97.10;;;;;;4978719;28;20207;-79
2023/06/11 04:52:31;;;;;;;23.47;16.33;;;20.10;97.10;;;;;;4996985;28;20749;-80
2023/06/11 04:55:09;;;;;;;23.63;17.50;;;20.10;97.00;;;;;;5007805;28;20279;-80
2023/06/11 04:57:41;;;;;;;29.10;19.90;;;20.20;97.00;;;;;;4989969;28;20227;-81
2023/06/11 05:00:18;;;;;;;38.93;22.53;;;20.30;97.10;;;;;;5005455;28;20204;-80
2023/06/11 05:02:53;;;;;;;35.63;23.47;;;20.30;97.10;;;;;;4996482;28;20235;-80
2023/06/11 05:05:26;;;;;;;36.47;25.20;;;20.40;97.10;;;;;;4998135;28;20235;-79
2023/06/11 05:08:07;;;;;;;32.33;24.33;;;20.50;97.20;;;;;;4995357;28;20710;-80
2023/06/11 05:10:37;;;;;;;34.00;24.30;;;20.60;97.30;;;;;;4987852;28;20306;-79
2023/06/11 05:13:14;;;;;;;32.57;24.00;;;20.80;97.30;;;;;;4995077;28;20215;-80
2023/06/11 05:15:54;;;;;;;35.30;23.27;;;20.90;97.20;;;;;;5005243;28;20302;-79
2023/06/11 05:18:26;;;;;;;36.47;23.83;;;21.00;97.10;;;;;;4996686;28;20702;-80
2023/06/11 05:21:00;;;;;;;33.70;22.73;;;21.10;97.00;;;;;;4987036;28;20652;-81
2023/06/11 05:23:33;;;;;;;31.83;21.83;;;21.30;96.80;;;;;;4982400;28;20196;-80
2023/06/11 05:26:12;;;;;;;36.00;23.57;;;21.40;96.60;;;;;;4989090;28;20673;-80
2023/06/11 05:28:45;;;;;;;28.53;21.93;;;21.50;96.50;;;;;;4985345;28;20243;-79
2023/06/11 05:31:14;;;;;;;30.23;23.10;;;21.60;96.40;;;;;;5003074;28;20232;-79
2023/06/11 05:33:49;;;;;;;30.43;21.90;;;21.70;96.40;;;;;;4982460;28;20535;-80
2023/06/11 05:36:18;;;;;;;26.60;21.10;;;21.80;96.30;;;;;;4982373;28;20212;-80
2023/06/11 05:38:55;;;;;;;27.60;20.93;;;21.90;96.20;;;;;;4997805;28;20529;-80
2023/06/11 05:41:38;;;;;;;26.87;21.73;;;22.10;96.10;;;;;;5003190;28;20188;-79
2023/06/11 05:44:13;;;;;;;26.87;20.90;;;22.20;95.90;;;;;;5001172;28;20275;-79
2023/06/11 05:46:49;;;;;;;31.03;25.03;;;22.30;95.70;;;;;;4995759;28;20196;-81
2023/06/11 05:49:18;;;;;;;38.27;25.30;;;22.40;95.40;;;;;;5000050;28;20208;-79
2023/06/11 05:51:48;;;;;;;32.50;24.30;;;22.50;95.30;;;;;;5001075;28;20231;-79
2023/06/11 05:54:16;;;;;;;31.63;24.93;;;22.50;95.40;;;;;;5001455;28;20247;-79
2023/06/11 05:56:53;;;;;;;31.20;23.97;;;22.60;95.40;;;;;;4994236;28;20224;-79
2023/06/11 05:59:24;;;;;;;30.33;25.33;;;22.70;95.30;;;;;;4997278;28;20234;-80
2023/06/11 06:01:52;;;;;;;35.33;24.47;;;22.80;95.30;;;;;;5014557;28;20262;-79
2023/06/11 06:04:22;;;;;;;34.50;26.33;;;22.90;95.30;;;;;;4986335;28;20208;-80
2023/06/11 06:06:55;;;;;;;29.83;24.80;;;23.00;95.20;;;;;;4977183;28;20210;-79
2023/06/11 06:09:23;;;;;;;32.20;24.20;;;23.10;94.80;;;;;;4985260;28;20239;-79
2023/06/11 06:11:59;;;;;;;31.70;24.47;;;23.20;94.70;;;;;;4981421;28;20204;-79
2023/06/11 06:14:31;;;;;;;31.53;25.83;;;23.30;94.70;;;;;;4998025;28;20208;-79
2023/06/11 06:16:59;;;;;;;32.10;24.70;;;23.40;94.40;;;;;;5000371;28;20200;-79
2023/06/11 06:19:37;;;;;;;37.27;23.57;;;23.40;94.30;;;;;;4999404;28;20270;-79
2023/06/11 06:22:20;;;;;;;30.27;24.77;;;23.50;94.00;;;;;;5001348;28;20223;-79
2023/06/11 06:24:51;;;;;;;30.53;23.97;;;23.50;93.80;;;;;;5001449;28;20215;-79
2023/06/11 06:27:19;;;;;;;31.97;26.53;;;23.60;93.50;;;;;;4993755;28;20212;-81
2023/06/11 06:30:03;;;;;;;34.83;25.37;;;23.60;93.50;;;;;;4990813;28;20199;-80
2023/06/11 06:32:31;;;;;;;29.63;24.43;;;23.60;93.70;;;;;;4995209;28;20214;-80
2023/06/11 06:35:14;;;;;;;30.83;24.50;;;23.70;93.80;;;;;;4997412;28;20210;-79
2023/06/11 06:37:47;;;;;;;29.90;24.63;;;23.80;93.50;;;;;;5005779;28;20219;-79
2023/06/11 06:40:16;;;;;;;28.27;23.20;;;23.80;93.60;;;;;;5001221;28;20211;-80
2023/06/11 06:42:44;;;;;;;31.67;24.60;;;23.90;93.50;;;;;;5001239;28;20231;-79
2023/06/11 06:45:16;;;;;;;30.63;25.77;;;24.00;93.50;;;;;;4985634;28;20192;-79
2023/06/11 06:47:44;;;;;;;32.27;27.23;;;24.10;93.20;;;;;;5014232;28;20283;-80
2023/06/11 06:50:12;;;;;;;39.00;26.37;;;24.20;93.00;;;;;;5000217;28;20217;-79
2023/06/11 06:52:42;;;;;;;30.90;26.70;;;24.30;92.80;;;;;;4994413;28;20232;-78
2023/06/11 06:55:10;;;;;;;33.60;25.43;;;24.40;92.50;;;;;;4996448;28;20308;-79
2023/06/11 06:57:38;;;;;;;26.27;22.43;;;24.50;92.50;;;;;;4994498;28;20311;-79
2023/06/11 07:00:09;;;;;;;29.57;23.17;;;24.50;92.10;;;;;;4989122;28;20241;-78
2023/06/11 07:02:41;;;;;;;24.90;21.57;;;24.60;91.90;;;;;;5006641;28;20404;-78
2023/06/11 07:05:10;;;;;;;32.03;22.30;;;24.70;91.70;;;;;;4976522;28;20224;-79
2023/06/11 07:07:40;;;;;;;23.57;21.07;;;24.70;91.50;;;;;;4993756;28;20210;-77
2023/06/11 07:10:11;;;;;;;33.20;24.03;;;24.80;91.40;;;;;;4967405;28;20205;-81
2023/06/11 07:12:39;;;;;;;28.50;21.50;;;24.80;91.30;;;;;;4993746;28;20193;-79
2023/06/11 07:15:07;;;;;;;23.20;18.63;;;24.80;91.60;;;;;;4973668;28;20260;-79
2023/06/11 07:17:38;;;;;;;25.97;20.20;;;25.00;91.60;;;;;;4990295;28;20584;-79
2023/06/11 07:20:07;;;;;;;24.80;20.83;;;25.10;91.20;;;;;;4998098;28;20215;-79
2023/06/11 07:22:44;;;;;;;22.87;19.53;;;25.20;91.40;;;;;;4979208;28;20211;-81
2023/06/11 07:25:15;;;;;;;21.70;19.00;;;25.50;91.10;;;;;;4999057;28;20288;-79
2023/06/11 07:27:43;;;;;;;25.33;17.10;;;25.60;90.80;;;;;;4991021;28;20235;-79
2023/06/11 07:30:11;;;;;;;20.73;17.10;;;25.80;90.60;;;;;;4994010;28;20211;-79
2023/06/11 07:32:40;;;;;;;24.40;19.53;;;25.90;89.20;;;;;;4980576;28;20220;-79
2023/06/11 07:35:09;;;;;;;22.20;18.27;;;26.00;89.30;;;;;;4995679;28;20196;-79
2023/06/11 07:37:38;;;;;;;22.03;18.43;;;26.20;88.20;;;;;;4986209;28;20212;-79
2023/06/11 07:40:08;;;;;;;18.83;16.00;;;26.30;87.90;;;;;;4975145;28;20517;-79
2023/06/11 07:42:36;;;;;;;18.87;16.87;;;26.30;87.10;;;;;;4976911;28;20319;-79
2023/06/11 07:45:08;;;;;;;18.90;16.90;;;26.40;86.70;;;;;;4991315;28;20200;-83
2023/06/11 07:47:39;;;;;;;22.87;16.60;;;26.40;86.50;;;;;;4993556;28;20772;-79
2023/06/11 07:50:10;;;;;;;19.83;15.83;;;26.40;86.50;;;;;;4984252;28;20201;-79
2023/06/11 07:52:41;;;;;;;19.20;16.00;;;26.60;87.00;;;;;;4987159;28;20259;-79
2023/06/11 07:55:16;;;;;;;18.60;15.83;;;26.70;86.50;;;;;;4979813;28;20208;-80
2023/06/11 07:57:45;;;;;;;21.97;16.30;;;26.70;85.20;;;;;;4980445;28;20695;-79
2023/06/11 08:00:14;;;;;;;21.23;16.17;;;26.80;85.60;;;;;;5005218;28;20286;-79
2023/06/11 08:02:49;;;;;;;21.03;15.30;;;26.90;85.50;;;;;;4968517;28;20659;-79
2023/06/11 08:05:21;;;;;;;19.23;14.40;;;27.10;84.90;;;;;;4978586;28;20213;-80
2023/06/11 08:07:49;;;;;;;18.13;15.50;;;27.00;83.60;;;;;;4995661;28;20217;-80
2023/06/11 08:10:18;;;;;;;17.87;14.40;;;27.00;83.50;;;;;;4996715;28;20255;-80
2023/06/11 08:12:52;;;;;;;17.70;14.57;;;27.00;84.20;;;;;;4979391;28;20200;-81
2023/06/11 08:15:21;;;;;;;16.27;14.20;;;27.20;84.20;;;;;;4974681;28;20204;-80
2023/06/11 08:17:49;;;;;;;14.30;12.80;;;27.40;84.20;;;;;;4988239;28;20215;-79
2023/06/11 08:20:17;;;;;;;19.37;14.90;;;27.50;82.50;;;;;;4992499;28;20291;-80
2023/06/11 08:22:58;;;;;;;15.77;14.03;;;27.60;82.90;;;;;;4992094;28;20627;-80
2023/06/11 08:25:27;;;;;;;17.73;13.57;;;27.80;82.30;;;;;;4996569;28;20244;-79
2023/06/11 08:27:55;;;;;;;18.23;13.90;;;27.90;81.20;;;;;;4976259;28;20295;-81
2023/06/11 08:30:23;;;;;;;19.80;13.70;;;28.00;80.90;;;;;;4979480;28;20296;-79
2023/06/11 08:32:51;;;;;;;18.10;13.73;;;28.10;80.50;;;;;;4997173;28;20215;-79
2023/06/11 08:35:25;;;;;;;14.87;13.07;;;28.00;80.50;;;;;;4984274;28;20196;-81
2023/06/11 08:37:54;;;;;;;18.93;14.50;;;28.10;79.80;;;;;;4993426;28;20233;-80
2023/06/11 08:40:24;;;;;;;17.73;13.10;;;28.20;78.70;;;;;;4995416;28;20216;-80
2023/06/11 08:43:02;;;;;;;13.73;11.90;;;28.30;78.70;;;;;;4997166;28;20192;-82
2023/06/11 08:45:49;;;;;;;12.90;11.47;;;28.50;79.00;;;;;;4982359;28;20212;-79
2023/06/11 08:48:27;;;;;;;15.03;11.17;;;28.50;75.80;;;;;;5009339;28;20232;-80
2023/06/11 08:50:55;;;;;;;17.53;12.63;;;28.30;76.60;;;;;;4997273;28;20263;-81
2023/06/11 08:53:27;;;;;;;14.97;10.87;;;28.10;76.60;;;;;;5005428;28;20274;-79
2023/06/11 08:56:00;;;;;;;18.50;14.10;;;28.00;77.00;;;;;;4979846;28;20215;-80
2023/06/11 08:58:31;;;;;;;18.20;13.63;;;27.80;77.00;;;;;;4994501;28;20224;-78
2023/06/11 09:01:14;;;;;;;13.83;11.20;;;27.90;76.60;;;;;;4975254;28;20207;-81
2023/06/11 09:03:49;;;;;;;16.23;12.63;;;28.00;76.80;;;;;;4991576;28;20209;-80
2023/06/11 09:06:19;;;;;;;13.43;12.10;;;28.10;76.60;;;;;;4995647;28;20218;-80
2023/06/11 09:09:08;;;;;;;16.43;12.97;;;28.10;75.80;;;;;;4981426;28;20287;-81
2023/06/11 09:11:37;;;;;;;14.40;12.87;;;27.90;74.90;;;;;;4983495;28;20236;-80
2023/06/11 09:14:06;;;;;;;12.50;10.63;;;27.70;76.10;;;;;;4984437;28;20243;-80
2023/06/11 09:16:46;;;;;;;15.37;10.97;;;27.50;77.40;;;;;;4984172;28;20216;-80
2023/06/11 09:19:19;;;;;;;11.30;8.93;;;27.40;78.50;;;;;;4997731;28;20734;-81
2023/06/11 09:21:51;;;;;;;15.47;11.70;;;27.50;79.10;;;;;;4997033;28;20259;-81
2023/06/11 09:24:20;;;;;;;13.57;11.20;;;27.80;78.40;;;;;;4982589;28;20212;-80
2023/06/11 09:26:53;;;;;;;11.30;10.17;;;28.10;76.90;;;;;;4999961;28;20585;-80
2023/06/11 09:29:28;;;;;;;13.07;10.43;;;28.40;76.40;;;;;;4999734;28;20274;-81
2023/06/11 09:32:07;;;;;;;10.83;9.60;;;28.50;75.40;;;;;;5000451;28;20406;-80
2023/06/11 09:34:57;;;;;;;12.33;9.67;;;28.50;74.90;;;;;;5000820;28;20702;-79
2023/06/11 09:37:25;;;;;;;11.57;9.30;;;28.70;73.90;;;;;;4991459;28;20295;-87
2023/06/11 09:39:53;;;;;;;11.50;8.67;;;28.70;73.20;;;;;;5015431;28;20318;-81
2023/06/11 09:42:26;;;;;;;10.47;8.47;;;28.80;74.30;;;;;;4990960;28;20626;-80
2023/06/11 09:44:59;;;;;;;10.20;8.53;;;29.00;74.70;;;;;;5015032;28;20220;-81
2023/06/11 09:47:37;;;;;;;7.97;6.93;;;29.20;73.40;;;;;;5012206;28;20478;-80
2023/06/11 09:50:06;;;;;;;10.00;7.10;;;29.40;72.10;;;;;;4993847;28;20216;-81
2023/06/11 09:52:38;;;;;;;7.23;6.57;;;29.50;71.30;;;;;;5002167;28;20734;-82
2023/06/11 09:55:08;;;;;;;10.63;8.03;;;29.60;70.00;;;;;;4994808;28;20212;-80
2023/06/11 09:57:38;;;;;;;8.30;6.80;;;29.60;69.50;;;;;;4986950;28;20234;-80
2023/06/11 10:00:11;;;;;;;9.00;7.17;;;29.70;69.60;;;;;;5002543;28;20230;-81
2023/06/11 10:02:44;;;;;;;7.47;6.67;;;29.80;68.20;;;;;;4999624;28;20214;-80
2023/06/11 10:05:12;;;;;;;8.73;6.77;;;29.80;67.30;;;;;;4987264;28;20218;-80
2023/06/11 10:07:45;;;;;;;7.03;6.33;;;29.80;67.90;;;;;;5002202;28;20262;-80
2023/06/11 10:10:18;;;;;;;10.50;6.47;;;29.90;68.70;;;;;;4986998;28;20640;-81
2023/06/11 10:12:53;;;;;;;6.87;5.37;;;30.00;68.30;;;;;;4986434;28;20219;-80
2023/06/11 10:15:23;;;;;;;6.47;5.87;;;30.10;67.90;;;;;;5016613;28;20671;-81
2023/06/11 10:17:54;;;;;;;8.53;6.20;;;30.20;66.00;;;;;;5002739;28;21227;-79
2023/06/11 10:20:35;;;;;;;6.60;6.00;;;30.20;64.60;;;;;;4991771;28;20212;-80
2023/06/11 10:23:09;;;;;;;6.07;5.47;;;30.10;65.00;;;;;;5012922;28;20201;-81
2023/06/11 10:25:55;;;;;;;8.13;5.27;;;30.10;66.30;;;;;;5003352;28;20191;-81
2023/06/11 10:28:40;;;;;;;6.87;4.97;;;30.20;67.40;;;;;;4981046;28;20549;-81
2023/06/11 10:31:09;;;;;;;5.57;5.03;;;30.30;68.80;;;;;;4997654;28;20203;-81
2023/06/11 10:33:45;;;;;;;6.53;5.33;;;30.50;68.20;;;;;;5004128;28;20583;-82
2023/06/11 10:36:24;;;;;;;6.17;4.40;;;30.70;66.30;;;;;;5001803;28;20234;-80
2023/06/11 10:39:06;;;;;;;6.87;4.53;;;30.70;65.00;;;;;;4998072;28;20220;-79
2023/06/11 10:41:37;;;;;;;5.70;4.60;;;30.70;65.70;;;;;;5018039;28;20204;-81
2023/06/11 10:44:12;;;;;;;4.90;4.40;;;30.70;65.50;;;;;;5003957;28;20224;-81
2023/06/11 10:47:08;;;;;;;5.07;4.57;;;30.70;63.50;;;;;;4992773;28;20287;-81
2023/06/11 10:49:41;;;;;;;6.50;5.40;;;30.70;63.90;;;;;;4991926;28;20208;-79
2023/06/11 10:52:09;;;;;;;12.43;5.53;;;30.80;63.10;;;;;;4982861;28;20683;-80
2023/06/11 10:54:45;;;;;;;5.33;4.63;;;30.80;62.10;;;;;;4986688;28;20204;-81
2023/06/11 10:57:19;;;;;;;5.70;3.47;;;30.70;61.80;;;;;;4984441;28;20211;-81
2023/06/11 10:59:51;;;;;;;4.67;3.53;;;30.80;62.90;;;;;;4985775;28;20224;-82
2023/06/11 11:02:24;;;;;;;4.60;4.00;;;30.90;62.80;;;;;;5016271;28;20267;-80
2023/06/11 11:05:00;;;;;;;5.70;4.13;;;31.10;62.90;;;;;;5003976;28;20215;-80
2023/06/11 11:07:36;;;;;;;3.80;3.40;;;31.20;61.60;;;;;;5000072;28;20629;-80
2023/06/11 11:10:08;;;;;;;4.70;4.10;;;31.10;61.70;;;;;;5012121;28;20204;-79
2023/06/11 11:12:55;;;;;;;4.30;3.90;;;30.90;60.60;;;;;;5002039;28;20294;-78
2023/06/11 11:15:25;;;;;;;3.57;3.17;;;30.60;61.00;;;;;;4986403;28;20220;-78
2023/06/11 11:17:58;;;;;;;3.63;3.33;;;30.50;61.60;;;;;;5001926;28;20207;-80
2023/06/11 11:20:26;;;;;;;5.27;3.57;;;30.50;62.90;;;;;;5010965;28;20216;-80
2023/06/11 11:23:00;;;;;;;4.57;3.10;;;30.60;61.40;;;;;;4993230;28;20200;-79
2023/06/11 11:25:32;;;;;;;3.57;2.93;;;30.70;62.00;;;;;;4985236;28;20291;-80
2023/06/11 11:27:59;;;;;;;7.93;3.43;;;30.80;61.90;;;;;;5000337;28;20192;-79
2023/06/11 11:30:34;;;;;;;4.17;3.20;;;30.90;60.10;;;;;;5013692;28;20235;-80
2023/06/11 11:33:06;;;;;;;3.63;3.07;;;30.80;59.80;;;;;;4987179;28;20199;-78
2023/06/11 11:35:48;;;;;;;3.37;2.83;;;30.80;60.50;;;;;;5002736;28;20218;-82
2023/06/11 11:38:17;;;;;;;3.10;2.80;;;30.90;60.40;;;;;;5001853;28;20203;-81
2023/06/11 11:40:48;;;;;;;5.17;3.30;;;31.00;62.20;;;;;;5006743;28;20227;-79
2023/06/11 11:43:16;;;;;;;3.83;3.30;;;31.10;63.20;;;;;;5005030;28;20196;-80
2023/06/11 11:45:53;;;;;;;3.30;3.00;;;31.30;62.80;;;;;;4988336;28;20233;-81
2023/06/11 11:48:25;;;;;;;3.67;3.37;;;31.50;62.00;;;;;;5007109;28;20544;-81
2023/06/11 11:51:08;;;;;;;3.30;3.00;;;31.60;61.40;;;;;;5018956;28;20212;-79
2023/06/11 11:53:37;;;;;;;3.30;3.00;;;31.80;60.20;;;;;;4983286;28;20243;-79
2023/06/11 11:56:05;;;;;;;4.27;3.87;;;31.90;61.10;;;;;;5001122;28;20521;-80
2023/06/11 11:58:41;;;;;;;4.80;3.00;;;31.90;58.50;;;;;;5001151;28;20544;-82
2023/06/11 12:01:26;;;;;;;3.63;3.33;;;31.90;58.60;;;;;;5004354;28;20211;-79
2023/06/11 12:03:56;;;;;;;3.33;2.80;;;31.80;58.90;;;;;;4981532;28;20546;-81
2023/06/11 12:06:25;;;;;;;3.40;3.10;;;31.80;61.30;;;;;;5000850;28;20698;-78
2023/06/11 12:08:53;;;;;;;2.77;2.57;;;31.80;61.20;;;;;;4987559;28;20506;-78
2023/06/11 12:11:24;;;;;;;3.03;2.80;;;31.90;59.70;;;;;;4986739;28;20294;-81
2023/06/11 12:13:52;;;;;;;6.40;3.17;;;31.90;58.20;;;;;;4991655;28;20206;-79
2023/06/11 12:16:23;;;;;;;2.83;2.30;;;31.90;58.70;;;;;;5001877;28;20708;-78
2023/06/11 12:19:02;;;;;;;2.57;2.37;;;31.90;58.40;;;;;;4983803;28;20203;-78
2023/06/11 12:21:52;;;;;;;3.00;2.70;;;31.80;56.50;;;;;;5004284;28;20208;-79
2023/06/11 12:24:32;;;;;;;3.90;2.57;;;31.80;56.60;;;;;;4996953;28;20207;-81
2023/06/11 12:27:00;;;;;;;2.60;2.40;;;31.70;56.70;;;;;;4994199;28;20680;-80
2023/06/11 12:29:39;;;;;;;4.53;2.97;;;31.70;57.50;;;;;;5000212;28;20230;-79
2023/06/11 12:32:14;;;;;;;3.63;3.27;;;31.70;59.20;;;;;;4983875;28;20214;-80
2023/06/11 12:34:42;;;;;;;4.10;2.90;;;31.80;58.10;;;;;;4995647;28;20207;-79
2023/06/11 12:37:11;;;;;;;3.50;3.03;;;31.70;58.20;;;;;;4998998;28;20230;-79
2023/06/11 12:39:48;;;;;;;3.47;3.17;;;31.80;57.00;;;;;;4984403;28;20227;-79
2023/06/11 12:42:34;;;;;;;3.93;2.90;;;31.80;56.20;;;;;;4976829;28;20770;-78
2023/06/11 12:45:09;;;;;;;3.20;2.90;;;31.80;57.30;;;;;;4982144;28;20279;-79
2023/06/11 12:47:39;;;;;;;4.30;2.73;;;31.80;57.20;;;;;;5016093;28;20643;-79
2023/06/11 12:50:09;;;;;;;5.17;3.03;;;31.80;58.10;;;;;;4989113;28;20279;-79
2023/06/11 12:52:44;;;;;;;3.20;2.90;;;31.80;58.80;;;;;;4983011;28;20267;-81
2023/06/11 12:55:13;;;;;;;3.70;3.40;;;31.90;58.30;;;;;;4997124;28;20215;-80
2023/06/11 12:57:43;;;;;;;3.70;2.67;;;32.00;57.80;;;;;;5005837;28;20205;-80